Time;durP1;ratioP1;P1;durP2;ratioP2;P2;SDS_P1;SDS_P2;PMS_P1;PMS_P2;Temp;Humidity;BMP_temperature;BMP_pressure;BME280_temperature;BME280_humidity;BME280_pressure;Samples;Min_cycle;Max_cycle;Signal;HPM_P1;HPM_P2
2022/01/23 00:02:27;;;;;;;;;;;6.80;99.90;;;;;;4959308;28;19964;-79
2022/01/23 00:04:52;;;;;;;;;;;6.80;99.90;;;;;;4977166;28;20384;-79
2022/01/23 00:07:18;;;;;;;;;;;6.70;99.90;;;;;;4976791;28;19911;-78
2022/01/23 00:09:44;;;;;;;;;;;6.70;99.90;;;;;;4976720;28;19910;-78
2022/01/23 00:12:14;;;;;;;;;;;6.60;99.90;;;;;;4977033;28;19917;-78
2022/01/23 00:17:25;;;;;;;;;;;6.60;99.90;;;;;;4976175;28;19965;-78
2022/01/23 00:19:56;;;;;;;;;;;6.60;99.90;;;;;;4976713;28;19914;-78
2022/01/23 00:22:26;;;;;;;;;;;6.60;99.90;;;;;;4976443;28;19910;-78
2022/01/23 00:30:29;;;;;;;;;;;6.50;99.90;;;;;;4976498;28;19972;-78
2022/01/23 00:32:59;;;;;;;;;;;6.50;99.90;;;;;;4958596;28;20378;-78
2022/01/23 00:35:25;;;;;;;;;;;6.50;99.90;;;;;;4976212;28;20441;-78
2022/01/23 00:37:51;;;;;;;;;;;6.50;99.90;;;;;;4976300;28;20433;-78
2022/01/23 00:40:17;;;;;;;;;;;6.50;99.90;;;;;;4976147;28;19916;-79
2022/01/23 00:42:43;;;;;;;;;;;6.40;99.90;;;;;;4958702;28;20294;-78
2022/01/23 00:47:37;;;;;;;;;;;6.50;99.90;;;;;;4976026;28;19949;-78
2022/01/23 00:50:03;;;;;;;;;;;6.50;99.90;;;;;;4958614;28;19914;-78
2022/01/23 00:52:29;;;;;;;;;;;6.60;99.90;;;;;;4958536;28;19933;-78
2022/01/23 00:54:55;;;;;;;;;;;6.50;99.90;;;;;;4975634;28;20286;-79
2022/01/23 00:57:21;;;;;;;;;;;6.40;99.90;;;;;;4976240;28;19914;-78
2022/01/23 00:59:47;;;;;;;;;;;6.40;99.90;;;;;;4975753;28;20365;-78
2022/01/23 01:02:12;;;;;;;;;;;6.40;99.90;;;;;;4975771;28;19910;-78
2022/01/23 01:04:38;;;;;;;;;;;6.40;99.90;;;;;;4975712;28;20004;-78
2022/01/23 01:07:03;;;;;;;;;;;6.30;99.90;;;;;;4975640;28;20358;-78
2022/01/23 01:09:30;;;;;;;;;;;6.30;99.90;;;;;;4958193;28;19938;-78
2022/01/23 01:11:59;;;;;;;;;;;6.30;99.90;;;;;;4958239;28;19961;-78
2022/01/23 01:17:08;;;;;;;;;;;6.30;99.90;;;;;;4975378;28;20293;-79
2022/01/23 01:33:25;;;;;;;;;;;6.10;99.90;;;;;;4974993;28;19910;-78
2022/01/23 01:38:16;;;;;;;;;;;6.20;99.90;;;;;;4975083;28;19922;-78
2022/01/23 01:40:42;;;;;;;;;;;6.30;99.90;;;;;;4975247;28;20348;-78
2022/01/23 01:43:07;;;;;;;;;;;6.20;99.90;;;;;;4975106;28;19993;-78
2022/01/23 01:45:34;;;;;;;;;;;6.20;99.90;;;;;;4975077;28;19910;-78
2022/01/23 01:48:01;;;;;;;;;;;6.10;99.90;;;;;;4975055;28;20432;-78
2022/01/23 01:50:27;;;;;;;;;;;6.10;99.90;;;;;;4975040;28;19998;-78
2022/01/23 01:52:53;;;;;;;;;;;6.20;99.90;;;;;;4973557;28;19910;-78
2022/01/23 01:55:29;;;;;;;;;;;6.30;99.90;;;;;;4953992;28;19925;-78
2022/01/23 01:58:01;;;;;;;;;;;6.40;99.90;;;;;;4955802;29;20359;-78
2022/01/23 02:10:49;;;;;;;;;;;6.10;99.90;;;;;;4955522;29;19918;-78
2022/01/23 02:13:18;;;;;;;;;;;6.20;99.90;;;;;;4938251;29;19911;-78
2022/01/23 02:22:20;;;;;;;;;;;6.20;99.90;;;;;;4955690;29;19918;-78
2022/01/23 02:51:49;;;;;;;;;;;6.10;99.90;;;;;;4958595;29;20005;-78
2022/01/23 02:56:48;;;;;;;;;;;6.10;99.90;;;;;;4973574;28;19926;-78
2022/01/23 02:59:22;;;;;;;;;;;6.10;99.90;;;;;;4976520;28;19956;-78
2022/01/23 03:02:05;;;;;;;;;;;6.10;99.90;;;;;;4978254;28;19914;-78
2022/01/23 03:04:36;;;;;;;;;;;6.20;99.90;;;;;;4978082;28;19915;-78
2022/01/23 03:32:50;;;;;;;;;;;6.00;99.90;;;;;;4977736;28;19957;-78
2022/01/23 03:35:17;;;;;;;;;;;6.00;99.90;;;;;;4977549;28;20297;-78
2022/01/23 03:37:42;;;;;;;;;;;6.10;99.90;;;;;;4977308;28;20005;-78
2022/01/23 03:40:09;;;;;;;;;;;6.10;99.90;;;;;;4977413;28;19938;-78
2022/01/23 03:42:37;;;;;;;;;;;6.10;99.90;;;;;;4977180;28;20318;-78
2022/01/23 03:50:04;;;;;;;;;;;5.90;99.90;;;;;;4976922;28;19910;-78
2022/01/23 03:52:30;;;;;;;;;;;5.90;99.90;;;;;;4976977;28;19910;-78
2022/01/23 03:54:55;;;;;;;;;;;5.90;99.90;;;;;;4977222;28;19980;-78
2022/01/23 03:57:21;;;;;;;;;;;5.90;99.90;;;;;;4975451;28;19919;-78
2022/01/23 03:59:46;;;;;;;;;;;5.90;99.90;;;;;;4977051;28;20314;-78
2022/01/23 04:02:14;;;;;;;;;;;5.80;99.90;;;;;;4959501;28;19916;-77
2022/01/23 04:04:40;;;;;;;;;;;5.80;99.90;;;;;;4976820;28;19998;-78
2022/01/23 04:07:15;;;;;;;;;;;5.70;99.90;;;;;;4976961;28;19910;-77
2022/01/23 04:09:42;;;;;;;;;;;5.70;99.90;;;;;;4959371;28;19922;-77
2022/01/23 04:12:10;;;;;;;;;;;5.80;99.90;;;;;;4976682;28;19910;-78
2022/01/23 04:14:41;;;;;;;;;;;5.80;99.90;;;;;;4976833;28;19914;-78
2022/01/23 04:18:06;;;;;;;;;;;5.70;99.90;;;;;;4976685;28;19914;-77
2022/01/23 04:21:15;;;;;;;;;;;5.70;99.90;;;;;;4976293;28;19965;-78
2022/01/23 04:33:57;;;;;;;;;;;5.90;99.90;;;;;;4976110;28;19965;-77
2022/01/23 05:01:05;;;;;;;;;;;5.50;99.90;;;;;;4975398;28;20360;-78
2022/01/23 05:06:27;;;;;;;;;;;5.50;99.90;;;;;;4975465;28;19957;-77
2022/01/23 05:08:52;;;;;;;;;;;5.50;99.90;;;;;;4975943;28;20374;-77
2022/01/23 05:11:18;;;;;;;;;;;5.60;99.90;;;;;;4975753;28;19965;-78
2022/01/23 05:13:44;;;;;;;;;;;5.50;99.90;;;;;;4975576;28;19949;-78
2022/01/23 05:16:10;;;;;;;;;;;5.50;99.90;;;;;;4990463;28;19910;-77
2022/01/23 05:18:36;;;;;;;;;;;5.50;99.90;;;;;;4975432;28;20006;-77
2022/01/23 05:21:41;;;;;;;;;;;5.60;99.90;;;;;;4975480;28;19941;-78
2022/01/23 05:23:51;;;;;;;;;;;5.60;99.90;;;;;;4975186;28;19921;-78
2022/01/23 05:26:17;;;;;;;;;;;5.60;99.90;;;;;;4975408;28;19911;-77
2022/01/23 05:28:43;;;;;;;;;;;5.50;99.90;;;;;;4975291;28;20370;-78
2022/01/23 05:31:08;;;;;;;;;;;5.50;99.90;;;;;;4975376;28;19914;-78
2022/01/23 05:33:34;;;;;;;;;;;5.50;99.90;;;;;;4973992;28;19910;-77
2022/01/23 05:35:59;;;;;;;;;;;5.50;99.90;;;;;;4975244;28;19918;-77
2022/01/23 05:38:25;;;;;;;;;;;5.50;99.90;;;;;;4975531;28;19918;-77
2022/01/23 05:40:56;;;;;;;;;;;5.50;99.90;;;;;;4975386;28;19921;-78
2022/01/23 05:43:22;;;;;;;;;;;5.50;99.90;;;;;;4975328;28;19911;-78
2022/01/23 05:45:48;;;;;;;;;;;5.50;99.90;;;;;;4975175;28;19918;-78
2022/01/23 05:48:13;;;;;;;;;;;5.40;99.90;;;;;;4975027;28;20450;-77
2022/01/23 05:50:39;;;;;;;;;;;5.40;99.90;;;;;;4975287;28;20274;-77
2022/01/23 05:53:04;;;;;;;;;;;5.40;99.90;;;;;;4973643;28;19910;-77
2022/01/23 05:55:30;;;;;;;;;;;5.40;99.90;;;;;;4974771;28;20417;-78
2022/01/23 05:57:56;;;;;;;;;;;5.40;99.90;;;;;;4974943;28;19914;-78
2022/01/23 06:00:21;;;;;;;;;;;5.30;99.90;;;;;;4974974;28;19917;-78
2022/01/23 06:02:47;;;;;;;;;;;5.30;99.90;;;;;;4975369;28;19910;-78
2022/01/23 06:05:12;;;;;;;;;;;5.40;99.90;;;;;;4957446;28;20009;-78
2022/01/23 06:07:38;;;;;;;;;;;5.50;99.90;;;;;;4975012;28;19910;-78
2022/01/23 06:10:05;;;;;;;;;;;5.40;99.90;;;;;;4974841;28;19910;-78
2022/01/23 06:12:30;;;;;;;;;;;5.50;99.90;;;;;;4974798;28;20290;-78
2022/01/23 06:14:56;;;;;;;;;;;5.50;99.90;;;;;;4978058;28;19910;-78
2022/01/23 06:17:21;;;;;;;;;;;5.50;99.90;;;;;;4978678;28;19961;-77
2022/01/23 06:19:47;;;;;;;;;;;5.60;99.90;;;;;;4978755;28;19910;-77
2022/01/23 06:22:14;;;;;;;;;;;5.60;99.90;;;;;;4978734;28;20422;-78
2022/01/23 06:24:46;;;;;;;;;;;5.50;99.90;;;;;;4978847;28;20364;-78
2022/01/23 06:27:12;;;;;;;;;;;5.50;99.90;;;;;;4961013;28;19914;-77
2022/01/23 06:29:38;;;;;;;;;;;5.60;99.90;;;;;;4961211;28;19993;-78
2022/01/23 06:32:04;;;;;;;;;;;5.60;99.90;;;;;;4978515;28;19910;-77
2022/01/23 06:34:30;;;;;;;;;;;5.60;99.90;;;;;;4978504;28;19913;-79
2022/01/23 06:36:56;;;;;;;;;;;5.60;99.90;;;;;;4978708;28;19914;-78
2022/01/23 06:39:22;;;;;;;;;;;5.50;99.90;;;;;;4978444;28;19961;-78
2022/01/23 06:41:48;;;;;;;;;;;5.50;99.90;;;;;;4961033;28;20428;-78
2022/01/23 06:44:14;;;;;;;;;;;5.50;99.90;;;;;;4978325;28;20001;-78
2022/01/23 06:46:40;;;;;;;;;;;5.60;99.90;;;;;;4978456;28;19910;-78
2022/01/23 06:49:06;;;;;;;;;;;5.60;99.90;;;;;;4978585;28;19917;-78
2022/01/23 06:51:31;;;;;;;;;;;5.60;99.90;;;;;;4978142;28;19921;-77
2022/01/23 06:53:57;;;;;;;;;;;5.60;99.90;;;;;;4978096;28;19910;-77
2022/01/23 06:56:22;;;;;;;;;;;5.60;99.90;;;;;;4977947;28;20302;-77
2022/01/23 06:58:48;;;;;;;;;;;5.50;99.90;;;;;;4978002;28;20286;-77
2022/01/23 07:01:15;;;;;;;;;;;5.40;99.90;;;;;;4978030;28;20358;-77
2022/01/23 07:03:40;;;;;;;;;;;5.40;99.90;;;;;;4977954;28;19911;-77
2022/01/23 07:06:06;;;;;;;;;;;5.40;99.90;;;;;;4977967;28;19916;-77
2022/01/23 07:08:32;;;;;;;;;;;5.40;99.90;;;;;;4977867;28;20377;-77
2022/01/23 07:10:58;;;;;;;;;;;5.30;99.90;;;;;;4977820;28;20366;-78
2022/01/23 07:13:24;;;;;;;;;;;5.30;99.90;;;;;;4977798;28;19910;-77
2022/01/23 07:15:49;;;;;;;;;;;5.30;99.90;;;;;;4977747;28;20275;-78
2022/01/23 07:18:15;;;;;;;;;;;5.30;99.90;;;;;;4977647;28;19922;-78
2022/01/23 07:20:42;;;;;;;;;;;5.40;99.90;;;;;;4977687;28;20374;-78
2022/01/23 07:23:07;;;;;;;;;;;5.40;99.90;;;;;;4977624;28;20385;-78
2022/01/23 07:25:33;;;;;;;;;;;5.30;99.90;;;;;;4975733;28;19910;-78
2022/01/23 07:28:00;;;;;;;;;;;5.40;99.90;;;;;;4977549;28;19910;-78
2022/01/23 07:32:57;;;;;;;;;;;5.40;99.90;;;;;;4977200;28;20012;-78
2022/01/23 07:35:23;;;;;;;;;;;5.40;99.90;;;;;;4977526;28;20379;-78
2022/01/23 07:37:49;;;;;;;;;;;5.40;99.90;;;;;;4977251;28;19914;-78
2022/01/23 07:40:14;;;;;;;;;;;5.50;99.90;;;;;;4960187;28;19914;-77
2022/01/23 07:42:40;;;;;;;;;;;5.50;99.90;;;;;;4977233;28;19910;-78
2022/01/23 07:45:06;;;;;;;;;;;5.40;99.90;;;;;;4977257;28;19914;-77
2022/01/23 07:47:32;;;;;;;;;;;5.40;99.90;;;;;;4977434;28;19974;-77
2022/01/23 07:49:57;;;;;;;;;;;5.40;99.90;;;;;;4977248;28;19910;-78
2022/01/23 07:52:23;;;;;;;;;;;5.40;99.90;;;;;;4977116;28;19957;-77
2022/01/23 07:54:49;;;;;;;;;;;5.40;99.90;;;;;;4959560;28;19917;-77
2022/01/23 07:57:14;;;;;;;;;;;5.30;99.90;;;;;;4977009;28;19914;-78
2022/01/23 07:59:40;;;;;;;;;;;5.30;99.90;;;;;;4959513;28;19911;-77
2022/01/23 08:02:05;;;;;;;;;;;5.30;99.90;;;;;;4977083;28;19917;-77
2022/01/23 08:04:31;;;;;;;;;;;5.40;99.90;;;;;;4976924;28;19930;-77
2022/01/23 08:07:09;;;;;;;;;;;5.40;99.90;;;;;;4976806;28;20366;-77
2022/01/23 08:09:35;;;;;;;;;;;5.40;99.90;;;;;;4976962;28;20000;-77
2022/01/23 08:12:00;;;;;;;;;;;5.40;99.90;;;;;;4976812;28;20445;-78
2022/01/23 08:14:26;;;;;;;;;;;5.40;99.90;;;;;;4976715;28;19933;-77
2022/01/23 08:16:51;;;;;;;;;;;5.40;99.90;;;;;;4976826;28;20397;-77
2022/01/23 08:19:17;;;;;;;;;;;5.50;99.90;;;;;;4976618;28;19910;-78
2022/01/23 08:21:43;;;;;;;;;;;5.40;99.90;;;;;;4976555;28;19910;-77
2022/01/23 08:24:08;;;;;;;;;;;5.50;99.90;;;;;;4976705;28;19910;-78
2022/01/23 08:26:34;;;;;;;;;;;5.60;99.90;;;;;;4976460;28;19981;-77
2022/01/23 08:29:00;;;;;;;;;;;5.60;99.90;;;;;;4976470;28;19993;-77
2022/01/23 08:31:26;;;;;;;;;;;5.60;99.90;;;;;;4976353;28;19914;-77
2022/01/23 08:33:53;;;;;;;;;;;5.50;99.90;;;;;;4976274;28;19921;-77
2022/01/23 08:36:18;;;;;;;;;;;5.50;99.90;;;;;;4975567;28;19910;-80
2022/01/23 08:38:44;;;;;;;;;;;5.40;99.90;;;;;;4976172;28;19921;-77
2022/01/23 08:43:46;;;;;;;;;;;5.50;99.90;;;;;;4975878;28;20289;-77
2022/01/23 08:46:11;;;;;;;;;;;5.40;99.90;;;;;;4976173;28;20009;-77
2022/01/23 08:48:37;;;;;;;;;;;5.40;99.90;;;;;;4976252;28;20083;-77
2022/01/23 08:51:02;;;;;;;;;;;5.50;99.90;;;;;;4976030;28;19917;-77
2022/01/23 08:53:28;;;;;;;;;;;5.60;99.90;;;;;;4975842;28;20006;-77
2022/01/23 08:55:54;;;;;;;;;;;5.50;99.90;;;;;;4975726;28;19922;-77
2022/01/23 08:58:19;;;;;;;;;;;5.50;99.90;;;;;;4976125;28;19921;-77
2022/01/23 09:00:45;;;;;;;;;;;5.50;99.90;;;;;;4958441;28;19917;-77
2022/01/23 09:03:12;;;;;;;;;;;5.60;99.90;;;;;;4975786;28;19910;-77
2022/01/23 09:05:37;;;;;;;;;;;5.70;99.90;;;;;;4975706;28;20004;-77
2022/01/23 09:08:03;;;;;;;;;;;5.80;99.90;;;;;;4975656;28;19949;-77
2022/01/23 09:10:39;;;;;;;;;;;5.80;99.90;;;;;;4975628;28;19911;-78
2022/01/23 09:13:14;;;;;;;;;;;5.80;99.90;;;;;;4990212;28;19910;-77
2022/01/23 09:15:41;;;;;;;;;;;5.80;99.90;;;;;;4974021;28;20342;-77
2022/01/23 09:18:07;;;;;;;;;;;5.80;99.90;;;;;;4975616;28;20005;-78
2022/01/23 09:20:32;;;;;;;;;;;5.80;99.90;;;;;;4974184;28;19949;-78
2022/01/23 09:22:58;;;;;;;;;;;5.80;99.90;;;;;;4975581;28;19910;-78
2022/01/23 09:25:24;;;;;;;;;;;5.90;99.90;;;;;;4975486;28;20310;-77
2022/01/23 09:27:49;;;;;;;;;;;5.90;99.90;;;;;;4975428;28;20266;-79
2022/01/23 09:30:22;;;;;;;;;;;5.90;99.90;;;;;;4975289;28;19910;-77
2022/01/23 09:32:48;;;;;;;;;;;5.90;99.90;;;;;;4975477;28;19996;-77
2022/01/23 09:35:15;;;;;;;;;;;5.90;99.90;;;;;;4974004;28;19910;-77
2022/01/23 09:37:41;;;;;;;;;;;5.70;99.90;;;;;;4975129;28;19965;-77
2022/01/23 09:40:08;;;;;;;;;;;5.70;99.90;;;;;;4975377;28;19911;-77
2022/01/23 09:42:34;;;;;;;;;;;5.60;99.90;;;;;;4975052;28;19917;-77
2022/01/23 09:45:03;;;;;;;;;;;5.60;99.90;;;;;;4973854;28;19917;-77
2022/01/23 09:47:29;;;;;;;;;;;5.50;99.90;;;;;;4975057;28;19910;-77
2022/01/23 09:49:55;;;;;;;;;;;5.50;99.90;;;;;;4975040;28;19992;-78
2022/01/23 09:52:21;;;;;;;;;;;5.60;99.90;;;;;;4974885;28;19921;-78
2022/01/23 09:54:56;;;;;;;;;;;5.60;99.90;;;;;;4974956;28;20290;-77
2022/01/23 09:57:24;;;;;;;;;;;5.70;99.90;;;;;;4974943;28;19926;-78
2022/01/23 09:59:54;;;;;;;;;;;5.70;99.90;;;;;;4974877;28;19997;-78
2022/01/23 10:02:19;;;;;;;;;;;5.80;99.90;;;;;;4975037;28;19956;-78
2022/01/23 10:04:45;;;;;;;;;;;5.80;99.90;;;;;;4974835;28;20001;-77
2022/01/23 10:07:11;;;;;;;;;;;5.80;99.90;;;;;;4975032;28;19914;-78
2022/01/23 10:09:37;;;;;;;;;;;5.80;99.90;;;;;;4974789;28;19941;-78
2022/01/23 10:12:03;;;;;;;;;;;5.80;99.90;;;;;;4974910;28;19910;-77
2022/01/23 10:14:29;;;;;;;;;;;5.80;99.90;;;;;;4974747;28;19917;-77
2022/01/23 10:16:54;;;;;;;;;;;5.80;99.90;;;;;;4989567;28;19914;-77
2022/01/23 10:19:21;;;;;;;;;;;5.90;99.90;;;;;;4974731;28;19949;-78
2022/01/23 10:21:47;;;;;;;;;;;5.90;99.90;;;;;;4974992;28;19945;-77
2022/01/23 10:24:14;;;;;;;;;;;6.00;99.90;;;;;;4974647;28;19980;-78
2022/01/23 10:26:43;;;;;;;;;;;6.00;99.90;;;;;;4974753;28;19917;-77
2022/01/23 10:29:24;;;;;;;;;;;6.00;99.90;;;;;;4989489;28;19910;-78
2022/01/23 10:32:11;;;;;;;;;;;6.20;99.90;;;;;;4974763;28;19917;-77
2022/01/23 10:34:44;;;;;;;;;;;6.10;99.90;;;;;;4974757;28;19910;-77
2022/01/23 10:37:11;;;;;;;;;;;6.10;99.90;;;;;;4974488;28;19922;-77
2022/01/23 10:39:40;;;;;;;;;;;6.10;99.90;;;;;;4974541;28;20329;-78
2022/01/23 10:42:24;;;;;;;;;;;6.10;99.90;;;;;;4974533;28;19910;-77
2022/01/23 10:47:47;;;;;;;;;;;6.20;99.90;;;;;;4974419;28;20333;-78
2022/01/23 10:50:12;;;;;;;;;;;6.20;99.90;;;;;;4956863;28;19917;-78
2022/01/23 10:52:48;;;;;;;;;;;6.20;99.90;;;;;;4974480;28;19910;-78
2022/01/23 10:55:14;;;;;;;;;;;6.00;99.90;;;;;;4988943;28;19918;-78
2022/01/23 10:57:41;;;;;;;;;;;6.10;99.90;;;;;;4956694;28;19977;-78
2022/01/23 11:00:08;;;;;;;;;;;6.10;99.90;;;;;;4975994;28;19910;-77
2022/01/23 11:02:37;;;;;;;;;;;6.00;99.90;;;;;;4960579;28;19911;-77
2022/01/23 11:05:05;;;;;;;;;;;6.20;99.90;;;;;;4978102;28;19968;-80
2022/01/23 11:07:33;;;;;;;;;;;6.10;99.90;;;;;;4977063;28;21255;-77
2022/01/23 11:10:04;;;;;;;;;;;6.10;99.90;;;;;;4977870;28;19910;-77
2022/01/23 11:17:56;;;;;;;;;;;6.30;99.90;;;;;;4977462;28;19921;-79
2022/01/23 11:20:30;;;;;;;;;;;6.30;99.90;;;;;;4977758;28;19914;-79
2022/01/23 11:23:03;;;;;;;;;;;6.20;99.90;;;;;;4977599;28;19916;-79
2022/01/23 11:25:29;;;;;;;;;;;6.40;99.90;;;;;;4977867;28;19917;-79
2022/01/23 11:28:01;;;;;;;;;;;6.50;99.90;;;;;;4977529;28;20004;-79
2022/01/23 11:30:34;;;;;;;;;;;6.50;99.90;;;;;;4977614;28;19910;-79
2022/01/23 11:33:00;;;;;;;;;;;6.50;99.90;;;;;;4977586;28;19914;-79
2022/01/23 11:35:27;;;;;;;;;;;6.50;99.90;;;;;;4977359;28;19921;-77
2022/01/23 11:37:53;;;;;;;;;;;6.70;99.90;;;;;;4977447;28;19914;-79
2022/01/23 11:53:54;;;;;;;;;;;6.80;99.90;;;;;;4977423;28;19917;-79
2022/01/23 11:56:30;;;;;;;;;;;6.70;99.90;;;;;;4976816;28;19922;-79
2022/01/23 11:59:21;;;;;;;;;;;6.70;99.90;;;;;;4959260;28;20382;-79
2022/01/23 12:01:47;;;;;;;;;;;6.80;99.90;;;;;;4959589;28;19911;-79
2022/01/23 12:04:20;;;;;;;;;;;6.80;99.90;;;;;;4976910;28;19917;-79
2022/01/23 12:07:04;;;;;;;;;;;6.70;99.90;;;;;;4976873;28;19910;-79
2022/01/23 12:09:29;;;;;;;;;;;6.60;99.90;;;;;;4976793;28;20278;-79
2022/01/23 12:12:01;;;;;;;;;;;6.70;99.90;;;;;;4976817;28;20008;-79
2022/01/23 12:17:05;;;;;;;;;;;6.90;99.90;;;;;;4976342;28;20014;-79
2022/01/23 12:19:31;;;;;;;;;;;6.90;99.90;;;;;;4977017;28;19997;-79
2022/01/23 12:21:59;;;;;;;;;;;6.90;99.90;;;;;;4976701;28;19911;-79
2022/01/23 12:24:25;;;;;;;;;;;6.90;99.90;;;;;;4976639;28;19917;-79
2022/01/23 12:26:55;;;;;;;;;;;6.90;99.90;;;;;;4959115;28;19911;-79
2022/01/23 12:29:24;;;;;;;;;;;7.10;99.90;;;;;;4976843;28;19910;-79
2022/01/23 12:32:10;;;;;;;;;;;6.90;99.90;;;;;;4976629;28;19945;-77
2022/01/23 12:35:02;;;;;;;;;;;7.00;99.90;;;;;;4976222;28;19910;-79
2022/01/23 12:37:47;;;;;;;;;;;7.10;99.90;;;;;;4971375;28;19921;-79
2022/01/23 12:40:22;;;;;;;;;;;7.20;99.90;;;;;;4976053;28;20014;-79
2022/01/23 12:43:06;;;;;;;;;;;7.30;99.90;;;;;;4976165;28;19917;-79
2022/01/23 12:45:52;;;;;;;;;;;7.30;99.90;;;;;;4976108;28;20036;-79
2022/01/23 12:48:30;;;;;;;;;;;7.30;99.90;;;;;;4976213;28;19910;-79
2022/01/23 12:51:04;;;;;;;;;;;7.20;99.90;;;;;;4958656;28;20366;-79
2022/01/23 12:53:50;;;;;;;;;;;7.20;99.90;;;;;;4976140;28;20363;-79
2022/01/23 12:56:15;;;;;;;;;;;7.20;99.90;;;;;;4958319;28;19922;-79
2022/01/23 12:58:42;;;;;;;;;;;6.90;99.90;;;;;;4975925;28;19929;-79
2022/01/23 13:01:15;;;;;;;;;;;6.80;99.90;;;;;;4975854;28;19915;-79
2022/01/23 13:03:43;;;;;;;;;;;6.80;99.90;;;;;;4975922;28;20397;-79
2022/01/23 13:06:11;;;;;;;;;;;6.80;99.90;;;;;;4975734;28;19910;-79
2022/01/23 13:08:46;;;;;;;;;;;6.90;99.90;;;;;;4975696;28;20289;-79
2022/01/23 13:14:07;;;;;;;;;;;6.80;99.90;;;;;;4957662;28;19917;-79
2022/01/23 13:16:48;;;;;;;;;;;6.70;99.90;;;;;;4975973;28;19933;-79
2022/01/23 13:28:26;;;;;;;;;;;6.70;99.90;;;;;;4975504;28;19917;-78
2022/01/23 13:30:31;;;;;;;;;;;6.80;99.90;;;;;;4975021;28;19961;-79
2022/01/23 13:33:00;;;;;;;;;;;6.70;99.90;;;;;;4975680;28;19918;-79
2022/01/23 13:35:30;;;;;;;;;;;6.70;99.90;;;;;;4957960;28;20286;-79
2022/01/23 13:37:58;;;;;;;;;;;6.80;99.90;;;;;;4973926;28;19956;-79
2022/01/23 13:40:33;;;;;;;;;;;6.80;99.90;;;;;;4989969;28;19910;-79
2022/01/23 13:53:49;;;;;;;;;;;6.90;99.90;;;;;;4975089;28;19910;-79
2022/01/23 13:59:12;;;;;;;;;;;6.90;99.90;;;;;;4974795;28;19965;-79
2022/01/23 14:04:16;;;;;;;;;;;6.70;99.90;;;;;;4975407;28;19919;-79
2022/01/23 14:06:42;;;;;;;;;;;6.40;99.90;;;;;;4973629;28;19914;-79
2022/01/23 14:09:09;;;;;;;;;;;6.30;99.90;;;;;;4975090;28;19973;-79
2022/01/23 14:11:35;;;;;;;;;;;6.30;99.90;;;;;;4974819;28;19910;-79
2022/01/23 14:14:10;;;;;;;;;;;6.40;99.90;;;;;;4974846;28;19910;-80
2022/01/23 14:16:35;;;;;;;;;;;6.30;99.90;;;;;;4974783;28;19915;-79
2022/01/23 14:19:13;;;;;;;;;;;6.40;99.90;;;;;;4974897;28;19918;-79
2022/01/23 14:21:40;;;;;;;;;;;6.40;99.90;;;;;;4974865;28;19950;-79
2022/01/23 14:24:06;;;;;;;;;;;6.40;99.90;;;;;;4974823;28;19910;-79
2022/01/23 14:26:31;;;;;;;;;;;6.40;99.90;;;;;;4974651;28;19921;-79
2022/01/23 14:29:02;;;;;;;;;;;6.20;99.90;;;;;;4974707;28;19910;-79
2022/01/23 14:31:36;;;;;;;;;;;6.20;99.90;;;;;;4974831;28;19917;-79
2022/01/23 14:34:04;;;;;;;;;;;6.20;99.90;;;;;;4974788;28;19914;-79
2022/01/23 14:36:35;;;;;;;;;;;6.30;99.90;;;;;;4978648;28;19910;-79
2022/01/23 14:39:08;;;;;;;;;;;6.40;99.90;;;;;;4978343;28;20444;-78
2022/01/23 14:41:35;;;;;;;;;;;6.30;99.90;;;;;;4978760;28;19910;-79
2022/01/23 14:44:05;;;;;;;;;;;6.20;99.90;;;;;;4978518;28;19911;-79
2022/01/23 14:46:31;;;;;;;;;;;6.10;99.90;;;;;;4977061;28;20001;-79
2022/01/23 14:49:01;;;;;;;;;;;6.00;99.90;;;;;;4978489;28;20094;-79
2022/01/23 14:51:29;;;;;;;;;;;6.00;99.90;;;;;;4976948;28;20001;-79
2022/01/23 14:53:55;;;;;;;;;;;6.00;99.90;;;;;;4978099;28;19914;-79
2022/01/23 14:56:21;;;;;;;;;;;6.00;99.90;;;;;;4977996;28;19998;-79
2022/01/23 14:58:47;;;;;;;;;;;5.90;99.90;;;;;;4978044;28;19921;-79
2022/01/23 15:01:14;;;;;;;;;;;5.90;99.90;;;;;;4978006;28;19914;-80
2022/01/23 15:03:42;;;;;;;;;;;5.90;99.90;;;;;;4978203;28;19911;-79
2022/01/23 15:06:07;;;;;;;;;;;5.80;99.90;;;;;;4977928;28;19910;-79
2022/01/23 15:08:33;;;;;;;;;;;5.80;99.90;;;;;;4977854;28;19911;-78
2022/01/23 15:11:00;;;;;;;;;;;5.90;99.90;;;;;;4977861;28;19917;-79
2022/01/23 15:13:26;;;;;;;;;;;5.80;99.90;;;;;;4976536;28;19921;-80
2022/01/23 15:15:53;;;;;;;;;;;5.80;99.90;;;;;;4977723;28;19914;-79
2022/01/23 15:18:18;;;;;;;;;;;5.70;99.90;;;;;;4976340;28;20009;-79
2022/01/23 15:20:44;;;;;;;;;;;5.80;99.90;;;;;;4977685;28;19970;-79
2022/01/23 15:23:10;;;;;;;;;;;5.80;99.90;;;;;;4977649;28;19917;-79
2022/01/23 15:25:36;;;;;;;;;;;5.80;99.90;;;;;;4977749;28;19910;-79
2022/01/23 15:28:02;;;;;;;;;;;5.70;99.90;;;;;;4976285;28;20373;-79
2022/01/23 15:30:28;;;;;;;;;;;5.70;99.90;;;;;;4977481;28;20003;-79
2022/01/23 15:32:54;;;;;;;;;;;5.60;99.90;;;;;;4977893;28;20397;-79
2022/01/23 15:35:20;;;;;;;;;;;5.50;99.90;;;;;;4977539;28;20333;-78
2022/01/23 15:37:46;;;;;;;;;;;5.40;99.90;;;;;;4977329;28;19914;-79
2022/01/23 15:40:12;;;;;;;;;;;5.50;99.90;;;;;;4976070;28;19914;-79
2022/01/23 15:42:39;;;;;;;;;;;5.40;99.90;;;;;;4977301;28;19997;-79
2022/01/23 15:45:05;;;;;;;;;;;5.50;99.90;;;;;;4977093;28;19917;-79
2022/01/23 15:47:30;;;;;;;;;;;5.60;99.90;;;;;;4977221;28;19976;-79
2022/01/23 15:49:56;;;;;;;;;;;5.60;99.90;;;;;;4992058;28;19953;-79
2022/01/23 15:52:22;;;;;;;;;;;5.60;99.90;;;;;;4977091;28;19914;-79
2022/01/23 15:54:48;;;;;;;;;;;5.60;99.90;;;;;;4977561;28;20350;-79
2022/01/23 15:57:14;;;;;;;;;;;5.50;99.90;;;;;;4976577;28;20435;-79
2022/01/23 15:59:40;;;;;;;;;;;5.50;99.90;;;;;;4991857;28;20290;-79
2022/01/23 16:02:07;;;;;;;;;;;5.50;99.90;;;;;;4977003;28;19918;-79
2022/01/23 16:04:35;;;;;;;;;;;5.60;99.90;;;;;;4975649;28;19910;-79
2022/01/23 16:07:03;;;;;;;;;;;5.60;99.90;;;;;;4976901;28;20008;-79
2022/01/23 16:09:28;;;;;;;;;;;5.60;99.90;;;;;;4975536;28;19910;-79
2022/01/23 16:11:54;;;;;;;;;;;5.50;99.90;;;;;;4976682;28;19916;-78
2022/01/23 16:14:20;;;;;;;;;;;5.60;99.90;;;;;;4976700;28;19957;-79
2022/01/23 16:16:46;;;;;;;;;;;5.50;99.90;;;;;;4976837;28;19910;-79
2022/01/23 16:19:12;;;;;;;;;;;5.40;99.90;;;;;;4976610;28;20001;-79
2022/01/23 16:21:37;;;;;;;;;;;5.40;99.90;;;;;;4976554;28;19960;-79
2022/01/23 16:24:03;;;;;;;;;;;5.40;99.90;;;;;;4976657;28;20281;-79
2022/01/23 16:26:29;;;;;;;;;;;5.40;99.90;;;;;;4976507;28;19910;-78
2022/01/23 16:28:54;;;;;;;;;;;5.30;99.90;;;;;;4976633;28;20381;-79
2022/01/23 16:31:20;;;;;;;;;;;5.20;99.90;;;;;;4976409;28;20326;-78
2022/01/23 16:33:46;;;;;;;;;;;5.20;99.90;;;;;;4976386;28;19910;-79
2022/01/23 16:36:11;;;;;;;;;;;5.20;99.90;;;;;;4974966;28;20378;-79
2022/01/23 16:38:37;;;;;;;;;;;5.20;99.90;;;;;;4976408;28;19970;-79
2022/01/23 16:41:03;;;;;;;;;;;5.20;99.90;;;;;;4976197;28;19910;-79
2022/01/23 16:43:30;;;;;;;;;;;5.10;99.90;;;;;;4976187;28;19917;-79
2022/01/23 16:45:56;;;;;;;;;;;5.10;99.90;;;;;;4976344;28;20326;-79
2022/01/23 16:48:22;;;;;;;;;;;5.10;99.90;;;;;;4976058;28;19965;-79
2022/01/23 16:50:48;;;;;;;;;;;5.20;99.90;;;;;;4976126;28;19910;-79
2022/01/23 16:53:14;;;;;;;;;;;5.20;99.90;;;;;;4975855;28;19910;-79
2022/01/23 16:55:40;;;;;;;;;;;5.10;99.90;;;;;;4975719;28;19924;-79
2022/01/23 16:58:06;;;;;;;;;;;5.10;99.90;;;;;;4975234;28;20317;-79
2022/01/23 17:00:32;;;;;;;;;;;5.10;99.90;;;;;;4976141;28;19917;-78
2022/01/23 17:02:59;;;;;;;;;;;5.00;99.90;;;;;;4975846;28;19916;-79
2022/01/23 17:05:25;;;;;;;;;;;5.10;99.90;;;;;;4975732;28;20005;-78
2022/01/23 17:07:50;;;;;;;;;;;5.10;99.90;;;;;;4975699;28;19956;-79
2022/01/23 17:10:16;;;;;;;;;;;5.10;99.90;;;;;;4990467;28;20005;-80
2022/01/23 17:12:42;;;;;;;;;;;5.10;99.90;;;;;;4975871;28;20470;-80
2022/01/23 17:15:08;;;;;;;;;;;5.20;99.90;;;;;;4975688;28;19910;-80
2022/01/23 17:17:33;;;;;;;;;;;5.10;99.90;;;;;;4975502;28;20400;-79
2022/01/23 17:19:59;;;;;;;;;;;5.10;99.90;;;;;;4975465;28;19910;-80
2022/01/23 17:22:24;;;;;;;;;;;5.20;99.90;;;;;;4974189;28;19916;-79
2022/01/23 17:24:50;;;;;;;;;;;5.20;99.90;;;;;;4975391;28;20284;-79
2022/01/23 17:27:16;;;;;;;;;;;5.20;99.90;;;;;;4975576;28;19938;-79
2022/01/23 17:29:41;;;;;;;;;;;5.10;99.90;;;;;;4975320;28;19965;-79
2022/01/23 17:32:09;;;;;;;;;;;5.00;99.90;;;;;;4975250;28;20425;-79
2022/01/23 17:34:38;;;;;;;;;;;5.00;99.90;;;;;;4975250;28;19910;-79
2022/01/23 17:37:04;;;;;;;;;;;5.00;99.90;;;;;;4975586;28;20465;-79
2022/01/23 17:39:30;;;;;;;;;;;5.00;99.90;;;;;;4975517;28;19992;-79
2022/01/23 17:41:56;;;;;;;;;;;5.10;99.90;;;;;;4975150;28;19911;-79
2022/01/23 17:44:24;;;;;;;;;;;5.10;99.90;;;;;;4990084;28;19921;-79
2022/01/23 17:46:56;;;;;;;;;;;5.00;99.90;;;;;;4957727;28;19910;-79
2022/01/23 17:49:33;;;;;;;;;;;5.10;99.90;;;;;;4975302;28;19914;-79
2022/01/23 17:51:59;;;;;;;;;;;4.90;99.90;;;;;;4973529;28;20441;-79
2022/01/23 17:54:25;;;;;;;;;;;5.00;99.90;;;;;;4975091;28;19954;-78
2022/01/23 17:56:50;;;;;;;;;;;4.90;99.90;;;;;;4974749;28;19926;-78
2022/01/23 17:59:16;;;;;;;;;;;4.90;99.90;;;;;;4989826;28;19997;-79